Time;durP1;ratioP1;P1;durP2;ratioP2;P2;SDS_P1;SDS_P2;PMS_P1;PMS_P2;Temp;Humidity;BMP_temperature;BMP_pressure;BME280_temperature;BME280_humidity;BME280_pressure;Samples;Min_cycle;Max_cycle;Signal;HPM_P1;HPM_P2
2023/07/15 00:00:27;;;;;;;;;;;;;;;;;;4954408;28;19988;-71
2023/07/15 00:02:54;;;;;;;;;;;;;;;;;;4955906;28;20344;-71
2023/07/15 00:05:20;;;;;;;;;;;;;;;;;;4955895;28;20068;-69
2023/07/15 00:07:46;;;;;;;;;;;;;;;;;;4955843;28;19958;-69
2023/07/15 00:10:12;;;;;;;;;;;;;;;;;;4956584;28;20339;-70
2023/07/15 00:12:38;;;;;;;;;;;;;;;;;;4955751;28;19957;-70
2023/07/15 00:15:05;;;;;;;;;;;;;;;;;;4955720;28;19996;-70
2023/07/15 00:17:31;;;;;;;;;;;;;;;;;;4955977;28;20041;-71
2023/07/15 00:19:57;;;;;;;;;;;;;;;;;;4955594;28;20076;-71
2023/07/15 00:22:23;;;;;;;;;;;;;;;;;;4956201;28;20324;-70
2023/07/15 00:24:49;;;;;;;;;;;;;;;;;;4955645;28;19958;-69
2023/07/15 00:27:15;;;;;;;;;;;;;;;;;;4955862;28;20372;-70
2023/07/15 00:29:41;;;;;;;;;;;;;;;;;;4955556;28;19958;-70
2023/07/15 00:32:07;;;;;;;;;;;;;;;;;;4955815;28;19993;-70
2023/07/15 00:34:33;;;;;;;;;;;;;;;;;;4955488;28;19965;-72
2023/07/15 00:36:59;;;;;;;;;;;;;;;;;;4955492;28;19957;-70
2023/07/15 00:39:25;;;;;;;;;;;;;;;;;;4955714;28;20439;-69
2023/07/15 00:41:51;;;;;;;;;;;;;;;;;;4959202;28;20475;-69
2023/07/15 00:44:16;;;;;;;;;;;;;;;;;;4959283;28;20052;-71
2023/07/15 00:46:43;;;;;;;;;;;;;;;;;;4959696;28;20044;-70
2023/07/15 00:49:09;;;;;;;;;;;;;;;;;;4959359;28;19957;-70
2023/07/15 00:51:35;;;;;;;;;;;;;;;;;;4959347;28;19997;-69
2023/07/15 00:54:01;;;;;;;;;;;;;;;;;;4959845;28;19962;-70
2023/07/15 00:56:27;;;;;;;;;;;;;;;;;;4959236;28;19962;-70
2023/07/15 00:58:53;;;;;;;;;;;;;;;;;;4959747;28;20460;-70
2023/07/15 01:01:19;;;;;;;;;;;;;;;;;;4959033;28;19983;-70
2023/07/15 01:03:45;;;;;;;;;;;;;;;;;;4959118;28;20366;-70
2023/07/15 01:06:11;;;;;;;;;;;;;;;;;;4959609;28;20053;-69
2023/07/15 01:08:37;;;;;;;;;;;;;;;;;;4959788;28;20012;-70
2023/07/15 01:11:03;;;;;;;;;;;;;;;;;;4959509;28;20372;-70
2023/07/15 01:13:29;;;;;;;;;;;;;;;;;;4958927;28;19961;-70
2023/07/15 01:15:54;;;;;;;;;;;;;;;;;;4959211;28;20004;-71
2023/07/15 01:18:20;;;;;;;;;;;;;;;;;;4958818;28;20420;-69
2023/07/15 01:20:47;;;;;;;;;;;;;;;;;;4958742;28;19977;-72
2023/07/15 01:23:13;;;;;;;;;;;;;;;;;;4958999;28;19974;-69
2023/07/15 01:25:39;;;;;;;;;;;;;;;;;;4958682;29;20434;-70
2023/07/15 01:28:05;;;;;;;;;;;;;;;;;;4959245;28;19958;-71
2023/07/15 01:30:31;;;;;;;;;;;;;;;;;;4958632;28;19957;-72
2023/07/15 01:32:57;;;;;;;;;;;;;;;;;;4958603;28;19965;-70
2023/07/15 01:35:23;;;;;;;;;;;;;;;;;;4958782;28;20056;-70
2023/07/15 01:37:48;;;;;;;;;;;;;;;;;;4958477;28;19996;-70
2023/07/15 01:40:14;;;;;;;;;;;;;;;;;;4958903;28;19977;-70
2023/07/15 01:42:40;;;;;;;;;;;;;;;;;;4958225;28;20064;-70
2023/07/15 01:45:09;;;;;;;;;;;;;;;;;;4958259;28;20479;-69
2023/07/15 01:47:35;;;;;;;;;;;;;;;;;;4958583;28;20056;-70
2023/07/15 01:50:01;;;;;;;;;;;;;;;;;;4958271;28;20008;-70
2023/07/15 01:52:27;;;;;;;;;;;;;;;;;;4957504;28;19957;-69
2023/07/15 01:54:53;;;;;;;;;;;;;;;;;;4958444;28;19962;-71
2023/07/15 01:57:19;;;;;;;;;;;;;;;;;;4958135;28;19957;-70
2023/07/15 01:59:45;;;;;;;;;;;;;;;;;;4958286;28;20095;-70
2023/07/15 02:02:10;;;;;;;;;;;;;;;;;;4958028;28;20030;-70
2023/07/15 02:04:36;;;;;;;;;;;;;;;;;;4958008;28;19957;-71
2023/07/15 02:07:02;;;;;;;;;;;;;;;;;;4958480;28;19965;-70
2023/07/15 02:09:28;;;;;;;;;;;;;;;;;;4958429;28;20009;-71
2023/07/15 02:11:54;;;;;;;;;;;;;;;;;;4958366;28;19958;-69
2023/07/15 02:14:21;;;;;;;;;;;;;;;;;;4958074;28;19980;-69
2023/07/15 02:16:47;;;;;;;;;;;;;;;;;;4958042;28;19965;-70
2023/07/15 02:19:13;;;;;;;;;;;;;;;;;;4957761;28;19990;-70
2023/07/15 02:21:39;;;;;;;;;;;;;;;;;;4957655;28;20451;-70
2023/07/15 02:24:06;;;;;;;;;;;;;;;;;;4957638;28;19958;-70
2023/07/15 02:26:32;;;;;;;;;;;;;;;;;;4958157;28;19964;-69
2023/07/15 02:28:58;;;;;;;;;;;;;;;;;;4957573;28;19958;-69
2023/07/15 02:31:24;;;;;;;;;;;;;;;;;;4957540;28;19964;-72
2023/07/15 02:33:50;;;;;;;;;;;;;;;;;;4957762;28;19965;-70
2023/07/15 02:36:16;;;;;;;;;;;;;;;;;;4957463;28;19985;-70
2023/07/15 02:38:41;;;;;;;;;;;;;;;;;;4957666;28;19962;-69
2023/07/15 02:41:07;;;;;;;;;;;;;;;;;;4957220;28;20029;-70
2023/07/15 02:43:33;;;;;;;;;;;;;;;;;;4957874;28;19969;-70
2023/07/15 02:45:59;;;;;;;;;;;;;;;;;;4956859;28;20032;-70
2023/07/15 02:48:25;;;;;;;;;;;;;;;;;;4957253;28;19965;-70
2023/07/15 02:50:51;;;;;;;;;;;;;;;;;;4957734;28;20320;-71
2023/07/15 02:53:17;;;;;;;;;;;;;;;;;;4957382;28;19958;-70
2023/07/15 02:55:43;;;;;;;;;;;;;;;;;;4957619;28;20021;-71
2023/07/15 02:58:09;;;;;;;;;;;;;;;;;;4957048;28;20007;-70
2023/07/15 03:00:35;;;;;;;;;;;;;;;;;;4957157;28;19978;-71
2023/07/15 03:03:02;;;;;;;;;;;;;;;;;;4956547;28;19958;-71
2023/07/15 03:05:28;;;;;;;;;;;;;;;;;;4957179;28;19995;-70
2023/07/15 03:07:54;;;;;;;;;;;;;;;;;;4956925;28;20335;-69
2023/07/15 03:10:20;;;;;;;;;;;;;;;;;;4957874;28;19958;-68
2023/07/15 03:12:48;;;;;;;;;;;;;;;;;;4957041;28;19957;-69
2023/07/15 03:15:14;;;;;;;;;;;;;;;;;;4956743;28;19961;-70
2023/07/15 03:17:41;;;;;;;;;;;;;;;;;;4956991;28;19962;-71
2023/07/15 03:20:28;;;;;;;;;;;;;;;;;;4956870;28;20366;-70
2023/07/15 03:22:54;;;;;;;;;;;;;;;;;;4956454;28;20055;-69
2023/07/15 03:25:20;;;;;;;;;;;;;;;;;;4956527;28;19958;-70
2023/07/15 03:27:46;;;;;;;;;;;;;;;;;;4956472;28;20321;-70
2023/07/15 03:30:12;;;;;;;;;;;;;;;;;;4956464;28;19958;-70
2023/07/15 03:32:37;;;;;;;;;;;;;;;;;;4956669;28;20389;-69
2023/07/15 03:35:03;;;;;;;;;;;;;;;;;;4956365;28;19961;-70
2023/07/15 03:37:29;;;;;;;;;;;;;;;;;;4956908;28;19957;-72
2023/07/15 03:39:56;;;;;;;;;;;;;;;;;;4956246;28;19978;-70
2023/07/15 03:42:22;;;;;;;;;;;;;;;;;;4956348;29;19981;-71
2023/07/15 03:44:48;;;;;;;;;;;;;;;;;;4956003;28;19994;-71
2023/07/15 03:47:13;;;;;;;;;;;;;;;;;;4956476;28;20099;-70
2023/07/15 03:49:39;;;;;;;;;;;;;;;;;;4956131;28;20438;-69
2023/07/15 03:52:05;;;;;;;;;;;;;;;;;;4956364;28;19958;-71
2023/07/15 03:54:31;;;;;;;;;;;;;;;;;;4956070;28;20412;-70
2023/07/15 03:56:58;;;;;;;;;;;;;;;;;;4956034;28;19958;-70
2023/07/15 03:59:24;;;;;;;;;;;;;;;;;;4954488;28;20056;-70
2023/07/15 04:01:50;;;;;;;;;;;;;;;;;;4955885;28;20024;-70
2023/07/15 04:04:16;;;;;;;;;;;;;;;;;;4956470;28;20359;-70
2023/07/15 04:06:43;;;;;;;;;;;;;;;;;;4955868;28;19958;-70
2023/07/15 04:09:11;;;;;;;;;;;;;;;;;;4956641;28;19958;-70
2023/07/15 04:11:37;;;;;;;;;;;;;;;;;;4955819;28;20432;-70
2023/07/15 04:14:03;;;;;;;;;;;;;;;;;;4956076;28;19969;-72
2023/07/15 04:16:29;;;;;;;;;;;;;;;;;;4955308;28;19965;-70
2023/07/15 04:18:55;;;;;;;;;;;;;;;;;;4955733;28;19981;-70
2023/07/15 04:21:21;;;;;;;;;;;;;;;;;;4955893;28;20068;-70
2023/07/15 04:23:47;;;;;;;;;;;;;;;;;;4955643;28;19964;-70
2023/07/15 04:26:14;;;;;;;;;;;;;;;;;;4955894;28;19968;-70
2023/07/15 04:28:40;;;;;;;;;;;;;;;;;;4955636;28;19958;-69
2023/07/15 04:31:06;;;;;;;;;;;;;;;;;;4955566;28;20009;-70
2023/07/15 04:33:31;;;;;;;;;;;;;;;;;;4955545;28;19965;-70
2023/07/15 04:35:57;;;;;;;;;;;;;;;;;;4955523;28;20336;-71
2023/07/15 04:38:23;;;;;;;;;;;;;;;;;;4955505;28;19961;-68
2023/07/15 04:40:49;;;;;;;;;;;;;;;;;;4955677;28;19978;-71
2023/07/15 04:43:15;;;;;;;;;;;;;;;;;;4955380;28;19973;-70
2023/07/15 04:45:41;;;;;;;;;;;;;;;;;;4955295;28;19994;-72
2023/07/15 04:48:08;;;;;;;;;;;;;;;;;;4955716;28;19965;-69
2023/07/15 04:50:34;;;;;;;;;;;;;;;;;;4955378;28;19957;-70
2023/07/15 04:53:00;;;;;;;;;;;;;;;;;;4955407;28;19980;-70
2023/07/15 04:55:26;;;;;;;;;;;;;;;;;;4955641;28;19957;-70
2023/07/15 04:57:52;;;;;;;;;;;;;;;;;;4955597;28;20052;-72
2023/07/15 05:00:20;;;;;;;;;;;;;;;;;;4955266;28;19977;-72
2023/07/15 05:02:46;;;;;;;;;;;;;;;;;;4955622;28;20520;-71
2023/07/15 05:05:12;;;;;;;;;;;;;;;;;;4955589;28;19965;-71
2023/07/15 05:07:38;;;;;;;;;;;;;;;;;;4955835;28;19958;-70
2023/07/15 05:10:05;;;;;;;;;;;;;;;;;;4955734;28;20431;-71
2023/07/15 05:12:31;;;;;;;;;;;;;;;;;;4955250;28;20027;-70
2023/07/15 05:14:58;;;;;;;;;;;;;;;;;;4955760;28;20447;-71
2023/07/15 05:17:25;;;;;;;;;;;;;;;;;;4955446;28;19961;-71
2023/07/15 05:19:51;;;;;;;;;;;;;;;;;;4955617;28;19961;-70
2023/07/15 05:22:18;;;;;;;;;;;;;;;;;;4955126;28;19957;-70
2023/07/15 05:24:44;;;;;;;;;;;;;;;;;;4955138;28;20006;-70
2023/07/15 05:27:09;;;;;;;;;;;;;;;;;;4957517;28;20024;-69
2023/07/15 05:29:35;;;;;;;;;;;;;;;;;;4958956;28;19965;-70
2023/07/15 05:32:01;;;;;;;;;;;;;;;;;;4958859;28;20431;-69
2023/07/15 05:34:27;;;;;;;;;;;;;;;;;;4958535;28;19965;-70
2023/07/15 05:36:53;;;;;;;;;;;;;;;;;;4958504;28;19961;-69
2023/07/15 05:39:19;;;;;;;;;;;;;;;;;;4958808;28;20012;-69
2023/07/15 05:41:45;;;;;;;;;;;;;;;;;;4958308;28;19985;-69
2023/07/15 05:44:11;;;;;;;;;;;;;;;;;;4958491;28;19964;-69
2023/07/15 05:46:37;;;;;;;;;;;;;;;;;;4958894;28;20479;-68
2023/07/15 05:49:04;;;;;;;;;;;;;;;;;;4958303;28;19958;-70
2023/07/15 05:51:30;;;;;;;;;;;;;;;;;;4958293;28;19957;-70
2023/07/15 05:53:56;;;;;;;;;;;;;;;;;;4958206;28;20004;-71
2023/07/15 05:56:21;;;;;;;;;;;;;;;;;;4958490;28;19962;-71
2023/07/15 05:58:47;;;;;;;;;;;;;;;;;;4958179;28;20412;-70
2023/07/15 06:01:13;;;;;;;;;;;;;;;;;;4957997;28;19981;-71
2023/07/15 06:03:39;;;;;;;;;;;;;;;;;;4958605;28;19964;-70
2023/07/15 06:06:05;;;;;;;;;;;;;;;;;;4958040;28;19981;-70
2023/07/15 06:08:32;;;;;;;;;;;;;;;;;;4957985;28;19962;-70
2023/07/15 06:10:57;;;;;;;;;;;;;;;;;;4958709;28;19956;-71
2023/07/15 06:13:23;;;;;;;;;;;;;;;;;;4957867;28;19984;-70
2023/07/15 06:15:50;;;;;;;;;;;;;;;;;;4957862;28;20340;-72
2023/07/15 06:18:16;;;;;;;;;;;;;;;;;;4957777;28;19958;-70
2023/07/15 06:20:42;;;;;;;;;;;;;;;;;;4957679;28;19977;-69
2023/07/15 06:23:07;;;;;;;;;;;;;;;;;;4957957;28;20048;-70
2023/07/15 06:25:33;;;;;;;;;;;;;;;;;;4957645;28;19993;-69
2023/07/15 06:27:59;;;;;;;;;;;;;;;;;;4958152;28;20048;-71
2023/07/15 06:30:28;;;;;;;;;;;;;;;;;;4957527;28;19996;-69
2023/07/15 06:32:54;;;;;;;;;;;;;;;;;;4958072;28;19958;-70
2023/07/15 06:35:20;;;;;;;;;;;;;;;;;;4957493;28;19958;-70
2023/07/15 06:37:46;;;;;;;;;;;;;;;;;;4956733;28;19958;-70
2023/07/15 06:40:12;;;;;;;;;;;;;;;;;;4957342;28;20020;-70
2023/07/15 06:42:38;;;;;;;;;;;;;;;;;;4955993;28;19977;-70
2023/07/15 06:45:04;;;;;;;;;;;;;;;;;;4957396;28;19994;-69
2023/07/15 06:47:30;;;;;;;;;;;;;;;;;;4957266;28;20450;-69
2023/07/15 06:49:56;;;;;;;;;;;;;;;;;;4957483;28;19957;-72
2023/07/15 06:52:22;;;;;;;;;;;;;;;;;;4957193;28;20419;-70
2023/07/15 06:54:48;;;;;;;;;;;;;;;;;;4957137;28;19957;-70
2023/07/15 06:57:14;;;;;;;;;;;;;;;;;;4957104;28;20355;-70
2023/07/15 06:59:41;;;;;;;;;;;;;;;;;;4957275;28;20000;-70
2023/07/15 07:02:06;;;;;;;;;;;;;;;;;;4956976;28;19957;-70
2023/07/15 07:04:32;;;;;;;;;;;;;;;;;;4956981;28;19957;-70
2023/07/15 07:06:58;;;;;;;;;;;;;;;;;;4956946;28;20344;-70
2023/07/15 07:09:24;;;;;;;;;;;;;;;;;;4957937;28;19956;-72
2023/07/15 07:11:50;;;;;;;;;;;;;;;;;;4956842;28;19957;-70
2023/07/15 07:14:16;;;;;;;;;;;;;;;;;;4957308;28;19957;-70
2023/07/15 07:16:42;;;;;;;;;;;;;;;;;;4956702;28;19958;-71
2023/07/15 07:19:08;;;;;;;;;;;;;;;;;;4957273;28;19957;-72
2023/07/15 07:21:34;;;;;;;;;;;;;;;;;;4956602;28;19981;-71
2023/07/15 07:23:59;;;;;;;;;;;;;;;;;;4956872;28;20364;-70
2023/07/15 07:26:25;;;;;;;;;;;;;;;;;;4956541;28;19957;-73
2023/07/15 07:28:51;;;;;;;;;;;;;;;;;;4956531;28;19993;-70
2023/07/15 07:31:18;;;;;;;;;;;;;;;;;;4956742;28;19957;-69
2023/07/15 07:33:44;;;;;;;;;;;;;;;;;;4956640;28;19972;-70
2023/07/15 07:36:10;;;;;;;;;;;;;;;;;;4956402;28;20056;-70
2023/07/15 07:38:36;;;;;;;;;;;;;;;;;;4956914;28;20311;-70
2023/07/15 07:41:01;;;;;;;;;;;;;;;;;;4956218;28;19985;-70
2023/07/15 07:43:27;;;;;;;;;;;;;;;;;;4956484;28;19980;-72
2023/07/15 07:45:53;;;;;;;;;;;;;;;;;;4955996;28;20480;-71
2023/07/15 07:48:19;;;;;;;;;;;;;;;;;;4956193;28;19964;-70
2023/07/15 07:50:45;;;;;;;;;;;;;;;;;;4956380;28;20319;-69
2023/07/15 07:53:11;;;;;;;;;;;;;;;;;;4955958;28;19961;-69
2023/07/15 07:55:37;;;;;;;;;;;;;;;;;;4956200;28;20040;-70
2023/07/15 07:58:03;;;;;;;;;;;;;;;;;;4955995;28;20436;-71
2023/07/15 08:00:28;;;;;;;;;;;;;;;;;;4955894;28;19977;-70
2023/07/15 08:02:54;;;;;;;;;;;;;;;;;;4956182;28;19957;-71
2023/07/15 08:05:20;;;;;;;;;;;;;;;;;;4955905;28;19957;-70
2023/07/15 08:07:46;;;;;;;;;;;;;;;;;;4956155;28;19965;-72
2023/07/15 08:10:12;;;;;;;;;;;;;;;;;;4956393;28;20305;-70
2023/07/15 08:12:38;;;;;;;;;;;;;;;;;;4955789;28;19964;-70
2023/07/15 08:15:04;;;;;;;;;;;;;;;;;;4956069;28;19992;-71
2023/07/15 08:17:31;;;;;;;;;;;;;;;;;;4955729;28;19957;-69
2023/07/15 08:19:57;;;;;;;;;;;;;;;;;;4954215;28;20040;-70
2023/07/15 08:22:22;;;;;;;;;;;;;;;;;;4955667;28;20025;-71
2023/07/15 08:24:48;;;;;;;;;;;;;;;;;;4955698;28;19958;-70
2023/07/15 08:27:14;;;;;;;;;;;;;;;;;;4956436;28;19964;-70
2023/07/15 08:29:40;;;;;;;;;;;;;;;;;;4955627;28;19957;-71
2023/07/15 08:32:06;;;;;;;;;;;;;;;;;;4955871;28;19958;-69
2023/07/15 08:34:32;;;;;;;;;;;;;;;;;;4955797;28;20375;-71
2023/07/15 08:36:58;;;;;;;;;;;;;;;;;;4956088;28;19993;-70
2023/07/15 08:39:24;;;;;;;;;;;;;;;;;;4955511;28;20347;-70
2023/07/15 08:41:50;;;;;;;;;;;;;;;;;;4955315;28;19985;-70
2023/07/15 08:44:15;;;;;;;;;;;;;;;;;;4955507;28;20064;-71
2023/07/15 08:46:42;;;;;;;;;;;;;;;;;;4956052;28;19957;-69
2023/07/15 08:49:08;;;;;;;;;;;;;;;;;;4955712;28;20386;-70
2023/07/15 08:51:34;;;;;;;;;;;;;;;;;;4955390;28;20011;-69
2023/07/15 08:54:00;;;;;;;;;;;;;;;;;;4955665;28;19984;-70
2023/07/15 08:56:26;;;;;;;;;;;;;;;;;;4954111;28;19999;-71
2023/07/15 08:58:53;;;;;;;;;;;;;;;;;;4955934;28;19980;-71
2023/07/15 09:01:19;;;;;;;;;;;;;;;;;;4956550;28;20080;-71
2023/07/15 09:03:45;;;;;;;;;;;;;;;;;;4959384;28;20008;-71
2023/07/15 09:06:11;;;;;;;;;;;;;;;;;;4959110;28;19958;-72
2023/07/15 09:08:37;;;;;;;;;;;;;;;;;;4959095;28;19957;-72
2023/07/15 09:11:05;;;;;;;;;;;;;;;;;;4959526;28;20454;-72
2023/07/15 09:13:34;;;;;;;;;;;;;;;;;;4957751;28;19962;-71
2023/07/15 09:16:01;;;;;;;;;;;;;;;;;;4958985;28;19958;-71
2023/07/15 09:18:27;;;;;;;;;;;;;;;;;;4958894;28;19961;-71
2023/07/15 09:20:53;;;;;;;;;;;;;;;;;;4957517;28;20080;-71
2023/07/15 09:23:19;;;;;;;;;;;;;;;;;;4958817;28;19997;-71
2023/07/15 09:25:45;;;;;;;;;;;;;;;;;;4959074;28;20301;-71
2023/07/15 09:28:11;;;;;;;;;;;;;;;;;;4958692;28;19964;-71
2023/07/15 09:30:36;;;;;;;;;;;;;;;;;;4959245;28;19958;-71
2023/07/15 09:33:02;;;;;;;;;;;;;;;;;;4958448;28;19961;-70
2023/07/15 09:35:28;;;;;;;;;;;;;;;;;;4958959;28;19958;-71
2023/07/15 09:37:54;;;;;;;;;;;;;;;;;;4958474;28;19958;-71
2023/07/15 09:40:20;;;;;;;;;;;;;;;;;;4958751;28;20021;-71
2023/07/15 09:42:46;;;;;;;;;;;;;;;;;;4958591;28;20009;-71
2023/07/15 09:45:12;;;;;;;;;;;;;;;;;;4958423;28;19993;-71
2023/07/15 09:47:38;;;;;;;;;;;;;;;;;;4958360;28;20049;-71
2023/07/15 09:50:04;;;;;;;;;;;;;;;;;;4958295;28;19968;-69
2023/07/15 09:52:31;;;;;;;;;;;;;;;;;;4958792;28;19957;-71
2023/07/15 09:54:57;;;;;;;;;;;;;;;;;;4958241;28;20317;-70
2023/07/15 09:57:23;;;;;;;;;;;;;;;;;;4958697;28;19958;-70
2023/07/15 09:59:48;;;;;;;;;;;;;;;;;;4958357;28;19958;-70
2023/07/15 10:02:14;;;;;;;;;;;;;;;;;;4958061;28;20487;-71
2023/07/15 10:04:41;;;;;;;;;;;;;;;;;;4958068;28;20008;-72
2023/07/15 10:07:07;;;;;;;;;;;;;;;;;;4957931;29;20402;-70
2023/07/15 10:09:33;;;;;;;;;;;;;;;;;;4958974;28;19958;-71
2023/07/15 10:11:59;;;;;;;;;;;;;;;;;;4956540;28;20052;-71
2023/07/15 10:14:26;;;;;;;;;;;;;;;;;;4956901;28;19980;-69
2023/07/15 10:16:52;;;;;;;;;;;;;;;;;;4958053;28;20029;-70
2023/07/15 10:19:17;;;;;;;;;;;;;;;;;;4956914;28;20416;-69
2023/07/15 10:21:43;;;;;;;;;;;;;;;;;;4957857;28;20073;-69
2023/07/15 10:24:09;;;;;;;;;;;;;;;;;;4957667;28;20438;-69
2023/07/15 10:26:35;;;;;;;;;;;;;;;;;;4957602;28;20317;-70
2023/07/15 10:29:01;;;;;;;;;;;;;;;;;;4957844;28;20052;-70
2023/07/15 10:31:27;;;;;;;;;;;;;;;;;;4957434;28;20420;-70
2023/07/15 10:33:56;;;;;;;;;;;;;;;;;;4957538;28;19961;-70
2023/07/15 10:36:22;;;;;;;;;;;;;;;;;;4957464;28;19985;-70
2023/07/15 10:38:48;;;;;;;;;;;;;;;;;;4957536;28;19957;-72
2023/07/15 10:41:14;;;;;;;;;;;;;;;;;;4957188;28;20351;-71
2023/07/15 10:43:40;;;;;;;;;;;;;;;;;;4955966;28;19957;-69
2023/07/15 10:46:06;;;;;;;;;;;;;;;;;;4956405;28;20447;-71
2023/07/15 10:48:32;;;;;;;;;;;;;;;;;;4956596;28;20056;-71
2023/07/15 10:50:58;;;;;;;;;;;;;;;;;;4956076;28;19993;-70
2023/07/15 10:53:25;;;;;;;;;;;;;;;;;;4956748;28;20052;-71
2023/07/15 10:55:50;;;;;;;;;;;;;;;;;;4956751;28;19961;-70
2023/07/15 10:58:16;;;;;;;;;;;;;;;;;;4957391;28;20044;-70
2023/07/15 11:00:42;;;;;;;;;;;;;;;;;;4956993;28;20353;-71
2023/07/15 11:03:09;;;;;;;;;;;;;;;;;;4956999;28;19957;-69
2023/07/15 11:05:35;;;;;;;;;;;;;;;;;;4956908;28;19957;-70
2023/07/15 11:08:01;;;;;;;;;;;;;;;;;;4956777;28;19958;-71
2023/07/15 11:10:27;;;;;;;;;;;;;;;;;;4955985;28;20012;-70
2023/07/15 11:12:53;;;;;;;;;;;;;;;;;;4956143;28;19972;-71
2023/07/15 11:15:19;;;;;;;;;;;;;;;;;;4955971;28;19989;-69
2023/07/15 11:17:45;;;;;;;;;;;;;;;;;;4956431;28;20462;-71
2023/07/15 11:20:11;;;;;;;;;;;;;;;;;;4956302;28;20029;-70
2023/07/15 11:22:36;;;;;;;;;;;;;;;;;;4956406;28;20432;-69
2023/07/15 11:25:02;;;;;;;;;;;;;;;;;;4956136;28;19957;-71
2023/07/15 11:27:28;;;;;;;;;;;;;;;;;;4956496;28;20408;-69
2023/07/15 11:29:54;;;;;;;;;;;;;;;;;;4956745;28;19964;-69
2023/07/15 11:32:20;;;;;;;;;;;;;;;;;;4956420;28;19957;-70
2023/07/15 11:34:46;;;;;;;;;;;;;;;;;;4956409;28;19964;-70
2023/07/15 11:37:12;;;;;;;;;;;;;;;;;;4956624;28;20028;-70
2023/07/15 11:39:38;;;;;;;;;;;;;;;;;;4956551;28;19989;-70
2023/07/15 11:42:04;;;;;;;;;;;;;;;;;;4956372;28;20037;-68
2023/07/15 11:44:29;;;;;;;;;;;;;;;;;;4956030;28;20028;-69
2023/07/15 11:46:56;;;;;;;;;;;;;;;;;;4956213;28;19964;-69
2023/07/15 11:49:21;;;;;;;;;;;;;;;;;;4956742;28;19964;-70
2023/07/15 11:51:47;;;;;;;;;;;;;;;;;;4956123;28;19958;-70
2023/07/15 11:54:15;;;;;;;;;;;;;;;;;;4956067;28;19961;-70
2023/07/15 11:56:41;;;;;;;;;;;;;;;;;;4956331;28;20336;-71
2023/07/15 11:59:07;;;;;;;;;;;;;;;;;;4956199;28;20012;-69
2023/07/15 12:01:33;;;;;;;;;;;;;;;;;;4955886;28;19978;-70
2023/07/15 12:03:59;;;;;;;;;;;;;;;;;;4956197;28;20053;-70
2023/07/15 12:06:25;;;;;;;;;;;;;;;;;;4955917;28;19957;-70
2023/07/15 12:08:51;;;;;;;;;;;;;;;;;;4956416;28;19958;-70
2023/07/15 12:11:17;;;;;;;;;;;;;;;;;;4956637;28;19956;-71
2023/07/15 12:13:43;;;;;;;;;;;;;;;;;;4956087;28;19958;-70
2023/07/15 12:16:09;;;;;;;;;;;;;;;;;;4955805;28;19958;-70
2023/07/15 12:18:35;;;;;;;;;;;;;;;;;;4956027;28;20028;-70
2023/07/15 12:21:00;;;;;;;;;;;;;;;;;;4955632;28;19977;-72
2023/07/15 12:23:26;;;;;;;;;;;;;;;;;;4955958;28;19997;-71
2023/07/15 12:25:52;;;;;;;;;;;;;;;;;;4955989;28;19957;-70
2023/07/15 12:28:18;;;;;;;;;;;;;;;;;;4955665;28;19964;-70
2023/07/15 12:30:44;;;;;;;;;;;;;;;;;;4955655;28;19961;-71
2023/07/15 12:33:10;;;;;;;;;;;;;;;;;;4955622;28;19957;-70
2023/07/15 12:35:36;;;;;;;;;;;;;;;;;;4955509;28;20348;-71
2023/07/15 12:38:03;;;;;;;;;;;;;;;;;;4955570;28;19958;-71
2023/07/15 12:40:29;;;;;;;;;;;;;;;;;;4954827;28;19982;-71
2023/07/15 12:42:55;;;;;;;;;;;;;;;;;;4955710;28;19996;-71
2023/07/15 12:45:21;;;;;;;;;;;;;;;;;;4955418;28;19993;-69
2023/07/15 12:47:47;;;;;;;;;;;;;;;;;;4955485;28;20420;-69
2023/07/15 12:50:13;;;;;;;;;;;;;;;;;;4955696;28;19962;-69
2023/07/15 12:52:39;;;;;;;;;;;;;;;;;;4955443;28;19957;-70
2023/07/15 12:55:05;;;;;;;;;;;;;;;;;;4955425;28;20013;-70
2023/07/15 12:57:31;;;;;;;;;;;;;;;;;;4955654;28;19958;-70
2023/07/15 12:59:56;;;;;;;;;;;;;;;;;;4955554;28;20419;-70
2023/07/15 13:02:22;;;;;;;;;;;;;;;;;;4955343;28;20048;-70
2023/07/15 13:04:48;;;;;;;;;;;;;;;;;;4955625;28;20486;-70
2023/07/15 13:07:15;;;;;;;;;;;;;;;;;;4955327;28;19961;-71
2023/07/15 13:09:41;;;;;;;;;;;;;;;;;;4953965;28;20352;-70
2023/07/15 13:12:06;;;;;;;;;;;;;;;;;;4955762;28;19957;-71
2023/07/15 13:14:32;;;;;;;;;;;;;;;;;;4955218;28;19964;-70
2023/07/15 13:16:58;;;;;;;;;;;;;;;;;;4955453;28;19958;-71
2023/07/15 13:19:24;;;;;;;;;;;;;;;;;;4955187;28;19965;-70
2023/07/15 13:21:50;;;;;;;;;;;;;;;;;;4955417;28;20016;-70
2023/07/15 13:24:16;;;;;;;;;;;;;;;;;;4955427;28;19964;-69
2023/07/15 13:26:42;;;;;;;;;;;;;;;;;;4955132;28;19966;-68
2023/07/15 13:29:08;;;;;;;;;;;;;;;;;;4955344;28;20048;-69
2023/07/15 13:31:34;;;;;;;;;;;;;;;;;;4955103;28;20024;-70
2023/07/15 13:33:59;;;;;;;;;;;;;;;;;;4955611;28;19958;-70
2023/07/15 13:36:25;;;;;;;;;;;;;;;;;;4955019;28;19964;-71
2023/07/15 13:38:51;;;;;;;;;;;;;;;;;;4955238;28;20089;-70
2023/07/15 13:41:17;;;;;;;;;;;;;;;;;;4954760;28;19993;-70
2023/07/15 13:43:45;;;;;;;;;;;;;;;;;;4955485;28;20108;-70
2023/07/15 13:46:11;;;;;;;;;;;;;;;;;;4953299;28;20374;-69
2023/07/15 13:48:36;;;;;;;;;;;;;;;;;;4957884;28;20053;-71
2023/07/15 13:51:02;;;;;;;;;;;;;;;;;;4958578;28;20044;-70
2023/07/15 13:53:28;;;;;;;;;;;;;;;;;;4958301;28;20008;-69
2023/07/15 13:55:54;;;;;;;;;;;;;;;;;;4958213;28;19985;-69
2023/07/15 13:58:20;;;;;;;;;;;;;;;;;;4958194;28;19957;-71
2023/07/15 14:00:46;;;;;;;;;;;;;;;;;;4958323;28;20048;-69
2023/07/15 14:03:12;;;;;;;;;;;;;;;;;;4958094;28;20044;-70
2023/07/15 14:05:38;;;;;;;;;;;;;;;;;;4958641;28;20466;-70
2023/07/15 14:08:04;;;;;;;;;;;;;;;;;;4958048;28;19965;-68
2023/07/15 14:10:30;;;;;;;;;;;;;;;;;;4958814;28;19993;-70
2023/07/15 14:12:56;;;;;;;;;;;;;;;;;;4957966;28;19957;-70
2023/07/15 14:15:22;;;;;;;;;;;;;;;;;;4958160;28;19969;-70
2023/07/15 14:17:48;;;;;;;;;;;;;;;;;;4957857;28;19957;-71
2023/07/15 14:20:15;;;;;;;;;;;;;;;;;;4957779;28;20013;-69
2023/07/15 14:22:41;;;;;;;;;;;;;;;;;;4958102;28;20338;-69
2023/07/15 14:25:07;;;;;;;;;;;;;;;;;;4957763;28;19958;-70
2023/07/15 14:27:33;;;;;;;;;;;;;;;;;;4957971;28;19961;-69
2023/07/15 14:29:59;;;;;;;;;;;;;;;;;;4957654;28;20382;-71
2023/07/15 14:32:24;;;;;;;;;;;;;;;;;;4957866;28;20007;-69
2023/07/15 14:34:50;;;;;;;;;;;;;;;;;;4957536;28;20339;-70
2023/07/15 14:37:16;;;;;;;;;;;;;;;;;;4958040;28;20008;-71
2023/07/15 14:39:42;;;;;;;;;;;;;;;;;;4957454;28;19993;-70
2023/07/15 14:42:08;;;;;;;;;;;;;;;;;;4957811;28;19985;-70
2023/07/15 14:44:34;;;;;;;;;;;;;;;;;;4957224;28;19997;-71
2023/07/15 14:47:00;;;;;;;;;;;;;;;;;;4957609;28;20463;-69
2023/07/15 14:49:26;;;;;;;;;;;;;;;;;;4957596;28;19958;-71
2023/07/15 14:51:52;;;;;;;;;;;;;;;;;;4957261;28;19961;-71
2023/07/15 14:54:18;;;;;;;;;;;;;;;;;;4957180;28;19997;-69
2023/07/15 14:56:43;;;;;;;;;;;;;;;;;;4955887;28;19972;-70
2023/07/15 14:59:09;;;;;;;;;;;;;;;;;;4956525;28;20471;-71
2023/07/15 15:01:35;;;;;;;;;;;;;;;;;;4957243;28;19977;-70
2023/07/15 15:04:01;;;;;;;;;;;;;;;;;;4957005;28;19958;-70
2023/07/15 15:06:27;;;;;;;;;;;;;;;;;;4956831;28;19958;-70
2023/07/15 15:08:53;;;;;;;;;;;;;;;;;;4957157;28;19969;-71
2023/07/15 15:11:22;;;;;;;;;;;;;;;;;;4957378;28;20051;-70
2023/07/15 15:13:49;;;;;;;;;;;;;;;;;;4957394;28;19958;-71
2023/07/15 15:16:15;;;;;;;;;;;;;;;;;;4956700;28;19957;-69
2023/07/15 15:18:43;;;;;;;;;;;;;;;;;;4957234;28;20012;-70
2023/07/15 15:21:09;;;;;;;;;;;;;;;;;;4955387;28;19982;-71
2023/07/15 15:23:35;;;;;;;;;;;;;;;;;;4957194;28;20331;-71
2023/07/15 15:26:03;;;;;;;;;;;;;;;;;;4955871;28;20342;-69
2023/07/15 15:28:29;;;;;;;;;;;;;;;;;;4956868;28;20036;-70
2023/07/15 15:30:55;;;;;;;;;;;;;;;;;;4956521;28;19992;-71
2023/07/15 15:33:20;;;;;;;;;;;;;;;;;;4956470;28;19964;-71
2023/07/15 15:35:46;;;;;;;;;;;;;;;;;;4956978;28;20045;-70
2023/07/15 15:38:12;;;;;;;;;;;;;;;;;;4956377;28;19962;-69
2023/07/15 15:40:38;;;;;;;;;;;;;;;;;;4956829;28;19977;-69
2023/07/15 15:43:04;;;;;;;;;;;;;;;;;;4956217;28;19985;-70
2023/07/15 15:45:30;;;;;;;;;;;;;;;;;;4956088;28;20599;-69
2023/07/15 15:47:56;;;;;;;;;;;;;;;;;;4956486;28;19957;-69
2023/07/15 15:50:22;;;;;;;;;;;;;;;;;;4956196;28;19958;-70
2023/07/15 15:52:49;;;;;;;;;;;;;;;;;;4956693;28;19958;-70
2023/07/15 15:55:15;;;;;;;;;;;;;;;;;;4955991;28;20432;-70
2023/07/15 15:57:41;;;;;;;;;;;;;;;;;;4956033;28;19958;-71
2023/07/15 16:00:07;;;;;;;;;;;;;;;;;;4956185;28;19972;-70
2023/07/15 16:02:32;;;;;;;;;;;;;;;;;;4955959;28;19957;-70
2023/07/15 16:04:58;;;;;;;;;;;;;;;;;;4955877;28;20311;-69
2023/07/15 16:07:24;;;;;;;;;;;;;;;;;;4955941;28;19965;-70
2023/07/15 16:09:50;;;;;;;;;;;;;;;;;;4955987;28;19964;-69
2023/07/15 16:12:16;;;;;;;;;;;;;;;;;;4955744;28;19958;-71
2023/07/15 16:14:42;;;;;;;;;;;;;;;;;;4955824;28;20036;-69
2023/07/15 16:17:08;;;;;;;;;;;;;;;;;;4955709;28;19997;-69
2023/07/15 16:19:34;;;;;;;;;;;;;;;;;;4955713;28;19965;-69
2023/07/15 16:22:00;;;;;;;;;;;;;;;;;;4955912;28;19977;-69
2023/07/15 16:24:26;;;;;;;;;;;;;;;;;;4955997;28;19958;-69
2023/07/15 16:26:52;;;;;;;;;;;;;;;;;;4955712;28;19965;-70
2023/07/15 16:29:18;;;;;;;;;;;;;;;;;;4956214;28;20055;-70
2023/07/15 16:31:44;;;;;;;;;;;;;;;;;;4955624;28;19961;-70
2023/07/15 16:34:10;;;;;;;;;;;;;;;;;;4955875;28;20431;-69
2023/07/15 16:36:35;;;;;;;;;;;;;;;;;;4955848;28;19966;-71